createdAt,value
2023-05-04T00:01:27.489Z,97110.78
2023-05-04T00:03:53.926Z,97106.22
2023-05-04T00:06:20.336Z,97104.84
2023-05-04T00:08:46.599Z,97107.78
2023-05-04T00:11:12.838Z,97106.69
2023-05-04T00:13:39.133Z,97099.41
2023-05-04T00:16:05.462Z,97101.28
2023-05-04T00:18:31.759Z,97093.22
2023-05-04T00:20:58.015Z,97091.06
2023-05-04T00:23:24.312Z,97092.94
2023-05-04T00:25:50.576Z,97097.25
2023-05-04T00:28:16.870Z,97088.88
2023-05-04T00:30:43.335Z,97095.03
2023-05-04T00:33:09.884Z,97089.28
2023-05-04T00:35:36.383Z,97095.94
2023-05-04T00:38:02.662Z,97085.28
2023-05-04T00:40:28.924Z,97096.78
2023-05-04T00:42:55.187Z,97093.88
2023-05-04T00:45:21.456Z,97087.63
2023-05-04T00:47:47.746Z,97092.09
2023-05-04T00:50:14.041Z,97085.31
2023-05-04T00:52:40.277Z,97083.41
2023-05-04T00:55:06.536Z,97076.44
2023-05-04T00:57:32.776Z,97078.81
2023-05-04T00:59:59.052Z,97084.44
2023-05-04T01:02:25.386Z,97082.00
2023-05-04T01:04:51.725Z,97077.59
2023-05-04T01:07:17.994Z,97077.53
2023-05-04T01:09:44.355Z,97075.09
2023-05-04T01:12:10.604Z,97081.47
2023-05-04T01:14:36.857Z,97083.56
2023-05-04T01:17:03.183Z,97083.75
2023-05-04T01:19:29.465Z,97088.75
2023-05-04T01:21:55.730Z,97082.31
2023-05-04T01:24:21.990Z,97081.34
2023-05-04T01:26:48.306Z,97081.34
2023-05-04T01:29:14.577Z,97082.97
2023-05-04T01:31:41.074Z,97085.13
2023-05-04T01:34:07.363Z,97080.50
2023-05-04T01:36:33.651Z,97083.44
2023-05-04T01:38:59.922Z,97082.31
2023-05-04T01:41:26.185Z,97083.44
2023-05-04T01:43:52.456Z,97083.13
2023-05-04T01:46:18.750Z,97087.63
2023-05-04T01:48:45.057Z,97091.81
2023-05-04T01:51:11.335Z,97093.63
2023-05-04T01:53:37.601Z,97093.38
2023-05-04T01:56:03.853Z,97097.88
2023-05-04T01:58:30.181Z,97099.00
2023-05-04T02:00:56.418Z,97093.91
2023-05-04T02:03:22.826Z,97102.63
2023-05-04T02:05:49.163Z,97105.75
2023-05-04T02:08:15.395Z,97104.88
2023-05-04T02:10:41.665Z,97103.56
2023-05-04T02:13:08.042Z,97112.38
2023-05-04T02:15:34.345Z,97112.63
2023-05-04T02:18:00.638Z,97111.28
2023-05-04T02:20:26.932Z,97108.84
2023-05-04T02:22:53.368Z,97103.72
2023-05-04T02:25:19.615Z,97100.22
2023-05-04T02:27:45.876Z,97106.72
2023-05-04T02:30:12.154Z,97103.25
2023-05-04T02:32:38.569Z,97103.00
2023-05-04T02:35:04.846Z,97104.44
2023-05-04T02:37:31.086Z,97099.66
2023-05-04T02:39:57.361Z,97107.75
2023-05-04T02:42:23.618Z,97111.78
2023-05-04T02:44:49.892Z,97112.59
2023-05-04T02:47:16.138Z,97113.66
2023-05-04T02:49:42.395Z,97116.91
2023-05-04T02:52:08.685Z,97119.09
2023-05-04T02:54:34.962Z,97121.53
2023-05-04T02:57:01.215Z,97122.09
2023-05-04T02:59:27.480Z,97122.34
2023-05-04T03:01:53.817Z,97115.34
2023-05-04T03:04:20.178Z,97119.41
2023-05-04T03:06:46.457Z,97120.78
2023-05-04T03:09:12.724Z,97115.09
2023-05-04T03:11:38.986Z,97112.59
2023-05-04T03:14:05.235Z,97107.56
2023-05-04T03:16:31.494Z,97109.63
2023-05-04T03:18:57.775Z,97114.75
2023-05-04T03:21:24.027Z,97107.97
2023-05-04T03:23:50.317Z,97105.34
2023-05-04T03:26:16.573Z,97106.50
2023-05-04T03:28:42.850Z,97103.31
2023-05-04T03:31:09.117Z,97111.63
2023-05-04T03:33:35.379Z,97108.69
2023-05-04T03:36:01.667Z,97101.03
2023-05-04T03:38:27.940Z,97108.97
2023-05-04T03:40:54.187Z,97112.06
2023-05-04T03:43:20.479Z,97119.22
2023-05-04T03:45:46.761Z,97118.03
2023-05-04T03:48:13.077Z,97110.59
2023-05-04T03:50:39.360Z,97119.34
2023-05-04T03:53:05.629Z,97124.97
2023-05-04T03:55:31.899Z,97126.00
2023-05-04T03:57:58.175Z,97125.69
2023-05-04T04:00:24.432Z,97125.69
2023-05-04T04:02:50.798Z,97126.00
2023-05-04T04:05:17.096Z,97126.00
2023-05-04T04:07:43.343Z,97123.66
2023-05-04T04:10:09.617Z,97123.72
2023-05-04T04:12:35.947Z,97122.75
2023-05-04T04:15:02.215Z,97123.56
2023-05-04T04:17:28.542Z,97135.97
2023-05-04T04:19:54.833Z,97130.28
2023-05-04T04:22:21.100Z,97130.88
2023-05-04T04:24:47.362Z,97135.19
2023-05-04T04:27:13.623Z,97129.75
2023-05-04T04:29:39.901Z,97130.16
2023-05-04T04:32:06.180Z,97127.22
2023-05-04T04:34:32.478Z,97126.25
2023-05-04T04:36:58.789Z,97133.22
2023-05-04T04:39:25.119Z,97135.34
2023-05-04T04:41:51.417Z,97133.22
2023-05-04T04:44:17.707Z,97131.78
2023-05-04T04:46:44.006Z,97132.09
2023-05-04T04:49:10.340Z,97131.94
2023-05-04T04:51:36.625Z,97133.31
2023-05-04T04:54:02.897Z,97135.75
2023-05-04T04:56:29.170Z,97140.03
2023-05-04T04:58:55.419Z,97143.69
2023-05-04T05:01:21.759Z,97140.38
2023-05-04T05:03:48.069Z,97150.41
2023-05-04T05:06:14.341Z,97154.16
2023-05-04T05:08:40.660Z,97146.94
2023-05-04T05:11:06.958Z,97151.88
2023-05-04T05:13:33.215Z,97156.91
2023-05-04T05:15:59.502Z,97153.97
2023-05-04T05:18:25.800Z,97152.03
2023-05-04T05:20:52.087Z,97154.47
2023-05-04T05:23:18.372Z,97155.59
2023-05-04T05:25:44.644Z,97165.09
2023-05-04T05:28:10.897Z,97161.59
2023-05-04T05:30:37.201Z,97164.38
2023-05-04T05:33:03.672Z,97166.44
2023-05-04T05:35:30.001Z,97171.53
2023-05-04T05:37:56.247Z,97171.53
2023-05-04T05:40:22.504Z,97170.88
2023-05-04T05:42:48.777Z,97168.28
2023-05-04T05:45:15.013Z,97166.00
2023-05-04T05:47:41.309Z,97158.69
2023-05-04T05:50:07.788Z,97154.53
2023-05-04T05:52:34.290Z,97167.00
2023-05-04T05:55:06.674Z,97169.72
2023-05-04T05:57:32.937Z,97170.59
2023-05-04T05:59:59.245Z,97165.38
2023-05-04T06:02:25.601Z,97153.41
2023-05-04T06:04:51.956Z,97160.19
2023-05-04T06:07:18.318Z,97169.66
2023-05-04T06:09:44.585Z,97166.47
2023-05-04T06:12:10.828Z,97159.81
2023-05-04T06:14:37.073Z,97167.75
2023-05-04T06:17:03.339Z,97167.31
2023-05-04T06:19:31.426Z,97178.16
2023-05-04T06:21:57.837Z,97164.28
2023-05-04T06:24:24.146Z,97167.56
2023-05-04T06:26:50.439Z,97165.75
2023-05-04T06:29:16.720Z,97173.59
2023-05-04T06:31:43.006Z,97167.19
2023-05-04T06:34:09.325Z,97163.78
2023-05-04T06:36:35.665Z,97167.09
2023-05-04T06:39:01.952Z,97156.38
2023-05-04T06:41:28.321Z,97163.41
2023-05-04T06:43:55.605Z,97159.69
2023-05-04T06:46:23.730Z,97154.66
2023-05-04T06:48:49.987Z,97151.75
2023-05-04T06:51:16.270Z,97150.44
2023-05-04T06:53:42.542Z,97158.31
2023-05-04T06:56:08.826Z,97156.19
2023-05-04T06:58:35.089Z,97148.66
2023-05-04T07:01:01.365Z,97152.19
2023-05-04T07:03:27.666Z,97150.63
2023-05-04T07:05:53.946Z,97153.34
2023-05-04T07:08:20.262Z,97150.44
2023-05-04T07:10:46.528Z,97151.25
2023-05-04T07:13:12.801Z,97142.69
2023-05-04T07:15:39.063Z,97145.94
2023-05-04T07:18:05.369Z,97143.00
2023-05-04T07:20:31.675Z,97145.19
2023-05-04T07:22:57.952Z,97136.31
2023-05-04T07:25:24.214Z,97139.03
2023-05-04T07:27:50.507Z,97141.72
2023-05-04T07:30:16.768Z,97137.44
2023-05-04T07:32:43.086Z,97138.53
2023-05-04T07:35:09.368Z,97134.22
2023-05-04T07:37:35.637Z,97136.38
2023-05-04T07:40:01.949Z,97135.84
2023-05-04T07:42:28.274Z,97138.56
2023-05-04T07:44:54.517Z,97135.06
2023-05-04T07:47:20.769Z,97124.59
2023-05-04T07:49:47.056Z,97123.00
2023-05-04T07:52:13.339Z,97125.41
2023-05-04T07:54:39.605Z,97121.66
2023-05-04T07:57:05.861Z,97128.94
2023-05-04T07:59:32.134Z,97126.78
2023-05-04T08:01:58.439Z,97132.72
2023-05-04T08:04:24.775Z,97132.72
2023-05-04T08:06:51.052Z,97133.78
2023-05-04T08:09:17.328Z,97138.91
2023-05-04T08:11:43.600Z,97127.06
2023-05-04T08:14:09.963Z,97130.28
2023-05-04T08:16:36.268Z,97125.16
2023-05-04T08:19:02.545Z,97129.75
2023-05-04T08:21:28.816Z,97138.63
2023-05-04T08:23:55.070Z,97131.31
2023-05-04T08:26:21.359Z,97128.88
2023-05-04T08:28:47.612Z,97134.53
2023-05-04T08:31:13.994Z,97131.56
2023-05-04T08:33:40.325Z,97131.56
2023-05-04T08:36:06.601Z,97129.13
2023-05-04T08:38:32.892Z,97131.56
2023-05-04T08:40:59.173Z,97135.88
2023-05-04T08:43:25.416Z,97131.03
2023-05-04T08:45:51.761Z,97119.44
2023-05-04T08:48:18.079Z,97121.03
2023-05-04T08:50:44.366Z,97132.38
2023-05-04T08:53:10.613Z,97127.78
2023-05-04T08:55:36.900Z,97134.53
2023-05-04T08:58:03.197Z,97132.38
2023-05-04T09:00:29.524Z,97126.41
2023-05-04T09:02:55.957Z,97127.47
2023-05-04T09:05:22.273Z,97128.84
2023-05-04T09:07:48.569Z,97123.19
2023-05-04T09:10:14.818Z,97128.84
2023-05-04T09:12:41.140Z,97124.78
2023-05-04T09:15:07.477Z,97122.84
2023-05-04T09:17:35.196Z,97122.03
2023-05-04T09:20:02.641Z,97120.13
2023-05-04T09:22:29.024Z,97122.81
2023-05-04T09:24:55.350Z,97125.25
2023-05-04T09:27:21.663Z,97119.31
2023-05-04T09:29:47.945Z,97118.72
2023-05-04T09:32:14.255Z,97116.28
2023-05-04T09:34:40.537Z,97118.94
2023-05-04T09:37:06.777Z,97118.13
2023-05-04T09:39:33.068Z,97122.13
2023-05-04T09:41:59.393Z,97111.34
2023-05-04T09:44:27.601Z,97124.03
2023-05-04T09:46:55.790Z,97122.13
2023-05-04T09:49:22.074Z,97116.09
2023-05-04T09:51:48.337Z,97121.25
2023-05-04T09:54:14.605Z,97114.22
2023-05-04T09:56:40.883Z,97119.59
2023-05-04T09:59:07.169Z,97110.63
2023-05-04T10:01:33.477Z,97110.59
2023-05-04T10:03:59.802Z,97111.69
2023-05-04T10:06:26.066Z,97105.41
2023-05-04T10:08:52.317Z,97108.41
2023-05-04T10:11:18.582Z,97104.84
2023-05-04T10:13:44.861Z,97108.84
2023-05-04T10:16:11.175Z,97102.38
2023-05-04T10:18:37.468Z,97104.50
2023-05-04T10:21:03.757Z,97097.66
2023-05-04T10:23:30.053Z,97104.16
2023-05-04T10:25:56.302Z,97100.06
2023-05-04T10:28:22.564Z,97101.69
2023-05-04T10:30:48.840Z,97093.56
2023-05-04T10:33:15.150Z,97101.38
2023-05-04T10:35:41.498Z,97101.91
2023-05-04T10:38:07.812Z,97089.19
2023-05-04T10:40:34.087Z,97086.97
2023-05-04T10:43:00.375Z,97082.28
2023-05-04T10:45:26.697Z,97079.81
2023-05-04T10:47:53.085Z,97086.31
2023-05-04T10:50:19.440Z,97082.19
2023-05-04T10:52:45.958Z,97079.66
2023-05-04T10:55:12.235Z,97089.69
2023-05-04T10:57:38.494Z,97073.75
2023-05-04T11:00:04.764Z,97067.72
2023-05-04T11:02:33.092Z,97069.22
2023-05-04T11:04:59.704Z,97062.44
2023-05-04T11:07:25.946Z,97056.75
2023-05-04T11:09:52.199Z,97048.72
2023-05-04T11:12:18.455Z,97048.97
2023-05-04T11:14:44.726Z,97050.22
2023-05-04T11:17:26.659Z,97046.50
2023-05-04T11:19:54.241Z,97046.72
2023-05-04T11:22:20.615Z,97042.56
2023-05-04T11:24:46.898Z,97038.97
2023-05-04T11:27:13.164Z,97041.03
2023-05-04T11:29:39.459Z,97028.25
2023-05-04T11:32:05.752Z,97027.31
2023-05-04T11:34:32.033Z,97021.66
2023-05-04T11:36:58.318Z,97030.28
2023-05-04T11:39:24.601Z,97021.56
2023-05-04T11:41:50.866Z,97016.16
2023-05-04T11:44:17.111Z,97016.00
2023-05-04T11:46:43.397Z,97019.81
2023-05-04T11:49:09.695Z,97020.22
2023-05-04T11:51:36.015Z,97018.44
2023-05-04T11:54:02.376Z,97018.75
2023-05-04T11:56:28.631Z,97021.63
2023-05-04T11:58:54.906Z,97010.28
2023-05-04T12:01:21.187Z,97013.09
2023-05-04T12:03:53.838Z,97007.38
2023-05-04T12:06:20.543Z,96998.81
2023-05-04T12:08:46.801Z,97004.25
2023-05-04T12:11:13.083Z,97002.25
2023-05-04T12:13:39.322Z,96997.31
2023-05-04T12:16:05.605Z,96992.91
2023-05-04T12:18:31.925Z,96993.47
2023-05-04T12:20:58.191Z,96993.16
2023-05-04T12:23:24.482Z,96978.59
2023-05-04T12:25:57.809Z,96979.59
2023-05-04T12:28:24.823Z,96993.44
2023-05-04T12:30:51.109Z,96991.78
2023-05-04T12:33:17.385Z,96985.94
2023-05-04T12:35:43.633Z,96980.69
2023-05-04T12:38:09.889Z,96980.75
2023-05-04T12:40:36.138Z,96971.63
2023-05-04T12:43:02.399Z,96962.88
2023-05-04T12:45:28.655Z,96966.19
2023-05-04T12:47:54.956Z,96960.78
2023-05-04T12:50:21.431Z,96957.44
2023-05-04T12:52:47.746Z,96954.34
2023-05-04T12:55:14.030Z,96953.47
2023-05-04T12:57:40.283Z,96952.91
2023-05-04T13:00:06.571Z,96946.56
2023-05-04T13:02:32.929Z,96953.47
2023-05-04T13:04:59.344Z,96939.38
2023-05-04T13:07:25.620Z,96933.34
2023-05-04T13:09:51.866Z,96932.47
2023-05-04T13:12:18.148Z,96935.88
2023-05-04T13:14:44.470Z,96931.25
2023-05-04T13:17:10.763Z,96926.78
2023-05-04T13:19:37.040Z,96932.88
2023-05-04T13:22:03.321Z,96923.59
2023-05-04T13:24:29.620Z,96924.38
2023-05-04T13:26:55.900Z,96917.66
2023-05-04T13:29:22.170Z,96911.03
2023-05-04T13:31:48.454Z,96911.97
2023-05-04T13:34:14.789Z,96907.38
2023-05-04T13:36:41.076Z,96903.22
2023-05-04T13:39:07.353Z,96897.31
2023-05-04T13:41:33.601Z,96895.72
2023-05-04T13:43:59.883Z,96890.25
2023-05-04T13:46:26.167Z,96893.78
2023-05-04T13:48:52.471Z,96878.09
2023-05-04T13:51:18.717Z,96885.63
2023-05-04T13:53:44.994Z,96879.84
2023-05-04T13:56:11.304Z,96870.72
2023-05-04T13:58:37.623Z,96875.53
2023-05-04T14:01:03.926Z,96871.69
2023-05-04T14:03:30.224Z,96875.03
2023-05-04T14:05:56.521Z,96877.75
2023-05-04T14:08:22.856Z,96868.13
2023-05-04T14:10:49.119Z,96865.38
2023-05-04T14:13:15.482Z,96863.25
2023-05-04T14:15:41.786Z,96858.41
2023-05-04T14:18:08.093Z,96862.28
2023-05-04T14:20:34.422Z,96856.03
2023-05-04T14:23:01.720Z,96858.91
2023-05-04T14:25:28.033Z,96846.31
2023-05-04T14:27:54.324Z,96851.13
2023-05-04T14:30:20.594Z,96855.59
2023-05-04T14:32:46.892Z,96846.47
2023-05-04T14:35:13.190Z,96847.28
2023-05-04T14:37:39.532Z,96838.31
2023-05-04T14:40:06.171Z,96845.72
2023-05-04T14:42:32.658Z,96841.09
2023-05-04T14:44:58.950Z,96835.19
2023-05-04T14:47:25.201Z,96830.56
2023-05-04T14:49:51.499Z,96834.25
2023-05-04T14:52:17.779Z,96833.19
2023-05-04T14:54:44.052Z,96824.78
2023-05-04T14:57:10.333Z,96825.97
2023-05-04T14:59:36.583Z,96824.13
2023-05-04T15:02:02.846Z,96820.38
2023-05-04T15:04:29.097Z,96823.91
2023-05-04T15:06:55.353Z,96819.97
2023-05-04T15:09:21.638Z,96816.31
2023-05-04T15:11:47.912Z,96818.72
2023-05-04T15:14:14.165Z,96821.78
2023-05-04T15:16:40.437Z,96824.41
2023-05-04T15:19:06.701Z,96815.16
2023-05-04T15:21:32.964Z,96814.75
2023-05-04T15:23:59.228Z,96817.09
2023-05-04T15:26:25.489Z,96821.50
2023-05-04T15:28:53.958Z,96825.56
2023-05-04T15:31:20.513Z,96813.88
2023-05-04T15:33:46.775Z,96819.84
2023-05-04T15:36:13.042Z,96818.22
2023-05-04T15:38:39.360Z,96819.69
2023-05-04T15:41:05.650Z,96814.81
2023-05-04T15:43:31.914Z,96812.81
2023-05-04T15:45:58.156Z,96820.31
2023-05-04T15:48:24.433Z,96818.22
2023-05-04T15:50:50.743Z,96823.81
2023-05-04T15:53:17.027Z,96823.34
2023-05-04T15:55:43.290Z,96819.47
2023-05-04T15:58:09.554Z,96818.34
2023-05-04T16:00:35.808Z,96815.50
2023-05-04T16:03:02.193Z,96819.47
2023-05-04T16:05:28.590Z,96818.66
2023-05-04T16:07:54.860Z,96822.06
2023-05-04T16:10:21.312Z,96821.59
2023-05-04T16:12:47.640Z,96817.81
2023-05-04T16:15:13.913Z,96824.16
2023-05-04T16:17:40.283Z,96821.59
2023-05-04T16:20:06.753Z,96831.31
2023-05-04T16:22:33.182Z,96821.94
2023-05-04T16:24:59.462Z,96819.91
2023-05-04T16:27:25.749Z,96825.81
2023-05-04T16:29:52.020Z,96832.00
2023-05-04T16:32:18.298Z,96819.88
2023-05-04T16:34:44.550Z,96823.09
2023-05-04T16:37:11.057Z,96822.56
2023-05-04T16:39:37.598Z,96829.41
2023-05-04T16:42:03.897Z,96818.47
2023-05-04T16:44:30.158Z,96819.97
2023-05-04T16:46:56.434Z,96819.81
2023-05-04T16:49:22.691Z,96814.16
2023-05-04T16:51:48.938Z,96816.69
2023-05-04T16:54:15.202Z,96811.53
2023-05-04T16:56:41.500Z,96818.97
2023-05-04T16:59:07.778Z,96827.38
2023-05-04T17:01:34.437Z,96815.72
2023-05-04T17:04:00.747Z,96824.69
2023-05-04T17:06:27.040Z,96822.78
2023-05-04T17:08:53.356Z,96828.00
2023-05-04T17:11:19.643Z,96825.38
2023-05-04T17:13:45.942Z,96825.22
2023-05-04T17:16:12.471Z,96821.44
2023-05-04T17:18:38.784Z,96824.72
2023-05-04T17:21:05.088Z,96827.66
2023-05-04T17:23:31.358Z,96835.13
2023-05-04T17:25:57.614Z,96830.22
2023-05-04T17:28:23.877Z,96837.66
2023-05-04T17:30:50.155Z,96826.25
2023-05-04T17:33:16.458Z,96834.97
2023-05-04T17:35:42.797Z,96839.44
2023-05-04T17:38:09.131Z,96842.66
2023-05-04T17:40:35.401Z,96839.28
2023-05-04T17:43:01.687Z,96847.34
2023-05-04T17:45:28.052Z,96839.31
2023-05-04T17:47:54.430Z,96854.41
2023-05-04T17:50:20.837Z,96851.91
2023-05-04T17:52:47.105Z,96862.75
2023-05-04T17:55:13.410Z,96865.03
2023-05-04T17:57:39.673Z,96870.00
2023-05-04T18:00:06.105Z,96864.72
2023-05-04T18:02:32.558Z,96871.66
2023-05-04T18:04:58.865Z,96871.63
2023-05-04T18:07:25.121Z,96870.66
2023-05-04T18:09:51.427Z,96877.97
2023-05-04T18:12:17.717Z,96882.25
2023-05-04T18:14:43.984Z,96891.22
2023-05-04T18:17:10.272Z,96890.81
2023-05-04T18:19:36.534Z,96883.00
2023-05-04T18:22:02.826Z,96879.53
2023-05-04T18:24:29.115Z,96886.28
2023-05-04T18:26:55.403Z,96882.47
2023-05-04T18:29:21.722Z,96896.78
2023-05-04T18:31:48.013Z,96895.94
2023-05-04T18:34:14.352Z,96904.69
2023-05-04T18:36:40.633Z,96907.78
2023-05-04T18:39:06.988Z,96908.91
2023-05-04T18:41:33.293Z,96907.31
2023-05-04T18:43:59.542Z,96921.31
2023-05-04T18:46:25.829Z,96917.78
2023-05-04T18:48:52.121Z,96925.50
2023-05-04T18:51:18.404Z,96910.28
2023-05-04T18:53:44.699Z,96920.56
2023-05-04T18:56:10.958Z,96927.94
2023-05-04T18:58:37.231Z,96925.22
2023-05-04T19:01:03.551Z,96942.03
2023-05-04T19:03:29.916Z,96939.16
2023-05-04T19:05:56.217Z,96938.50
2023-05-04T19:08:22.457Z,96940.75
2023-05-04T19:10:48.727Z,96941.38
2023-05-04T19:13:15.062Z,96948.59
2023-05-04T19:15:41.364Z,96950.84
2023-05-04T19:18:07.673Z,96953.88
2023-05-04T19:20:33.980Z,96957.56
2023-05-04T19:23:00.236Z,96967.97
2023-05-04T19:25:34.180Z,96967.00
2023-05-04T19:28:01.162Z,96967.16
2023-05-04T19:30:27.429Z,96970.81
2023-05-04T19:32:53.779Z,96975.63
2023-05-04T19:35:20.079Z,96975.44
2023-05-04T19:37:46.352Z,96984.38
2023-05-04T19:40:12.603Z,96983.19
2023-05-04T19:42:38.878Z,96993.13
2023-05-04T19:45:05.143Z,96992.78
2023-05-04T19:47:31.409Z,96997.53
2023-05-04T19:49:57.682Z,96996.25
2023-05-04T19:52:23.967Z,96998.13
2023-05-04T19:54:50.243Z,96997.63
2023-05-04T19:57:16.525Z,96997.47
2023-05-04T19:59:44.785Z,97007.84
2023-05-04T20:02:12.458Z,97015.81
2023-05-04T20:04:38.784Z,97015.78
2023-05-04T20:07:05.036Z,97014.16
2023-05-04T20:09:31.290Z,97017.50
2023-05-04T20:11:57.590Z,97019.75
2023-05-04T20:14:23.879Z,97024.38
2023-05-04T20:16:50.181Z,97020.06
2023-05-04T20:19:16.945Z,97022.28
2023-05-04T20:21:43.263Z,97031.06
2023-05-04T20:24:09.540Z,97033.91
2023-05-04T20:26:35.786Z,97030.97
2023-05-04T20:29:02.055Z,97031.56
2023-05-04T20:31:28.353Z,97029.16
2023-05-04T20:33:54.642Z,97030.28
2023-05-04T20:36:20.906Z,97034.22
2023-05-04T20:38:47.160Z,97030.53
2023-05-04T20:41:13.457Z,97031.94
2023-05-04T20:43:39.704Z,97040.09
2023-05-04T20:46:06.060Z,97040.22
2023-05-04T20:48:32.368Z,97038.44
2023-05-04T20:51:10.528Z,97037.44
2023-05-04T20:53:40.097Z,97030.22
2023-05-04T20:56:06.360Z,97030.03
2023-05-04T20:58:32.657Z,97031.75
2023-05-04T21:00:58.948Z,97034.88
2023-05-04T21:03:25.287Z,97035.50
2023-05-04T21:05:51.583Z,97038.00
2023-05-04T21:08:17.830Z,97032.69
2023-05-04T21:10:44.088Z,97048.50
2023-05-04T21:13:10.436Z,97043.47
2023-05-04T21:15:36.814Z,97047.06
2023-05-04T21:18:03.157Z,97044.97
2023-05-04T21:20:29.413Z,97042.44
2023-05-04T21:22:55.706Z,97043.84
2023-05-04T21:25:21.964Z,97041.56
2023-05-04T21:27:48.210Z,97051.09
2023-05-04T21:30:14.489Z,97053.91
2023-05-04T21:32:40.774Z,97054.00
2023-05-04T21:35:07.073Z,97065.47
2023-05-04T21:37:33.332Z,97058.22
2023-05-04T21:39:59.580Z,97059.72
2023-05-04T21:42:25.840Z,97061.13
2023-05-04T21:44:52.094Z,97058.50
2023-05-04T21:47:18.368Z,97058.06
2023-05-04T21:49:44.656Z,97057.34
2023-05-04T21:52:11.468Z,97058.91
2023-05-04T21:54:37.747Z,97064.19
2023-05-04T21:57:04.082Z,97060.16
2023-05-04T21:59:30.417Z,97059.97
2023-05-04T22:01:56.662Z,97058.72
2023-05-04T22:04:22.938Z,97056.81
2023-05-04T22:06:49.298Z,97057.13
2023-05-04T22:09:15.575Z,97059.03
2023-05-04T22:11:41.818Z,97062.13
2023-05-04T22:14:08.069Z,97064.13
2023-05-04T22:16:34.384Z,97068.22
2023-05-04T22:19:00.690Z,97077.75
2023-05-04T22:21:26.983Z,97076.44
2023-05-04T22:23:53.230Z,97078.13
2023-05-04T22:26:19.485Z,97075.69
2023-05-04T22:28:45.732Z,97077.91
2023-05-04T22:31:12.043Z,97085.94
2023-05-04T22:33:38.341Z,97090.56
2023-05-04T22:36:04.587Z,97091.06
2023-05-04T22:38:30.852Z,97093.78
2023-05-04T22:40:57.123Z,97093.78
2023-05-04T22:43:23.380Z,97094.34
2023-05-04T22:45:49.645Z,97092.47
2023-05-04T22:48:15.908Z,97096.50
2023-05-04T22:50:42.187Z,97103.53
2023-05-04T22:53:08.511Z,97097.59
2023-05-04T22:55:34.849Z,97099.50
2023-05-04T22:58:01.137Z,97095.97
2023-05-04T23:00:27.443Z,97103.00
2023-05-04T23:02:53.794Z,97096.78
2023-05-04T23:05:20.110Z,97093.53
2023-05-04T23:07:46.361Z,97106.63
2023-05-04T23:10:12.625Z,97103.03
2023-05-04T23:12:38.875Z,97102.75
2023-05-04T23:15:05.149Z,97097.03
2023-05-04T23:17:31.446Z,97101.66
2023-05-04T23:19:57.751Z,97095.16
2023-05-04T23:22:24.032Z,97091.63
2023-05-04T23:24:50.300Z,97097.03
2023-05-04T23:27:16.568Z,97096.78
2023-05-04T23:29:42.821Z,97093.28
2023-05-04T23:32:09.155Z,97095.44
2023-05-04T23:34:35.434Z,97095.50
2023-05-04T23:37:01.701Z,97091.91
2023-05-04T23:39:27.977Z,97102.47
2023-05-04T23:41:54.287Z,97088.13
2023-05-04T23:44:20.559Z,97090.81
2023-05-04T23:46:46.842Z,97093.28
2023-05-04T23:49:13.135Z,97094.06
2023-05-04T23:51:39.396Z,97085.94
2023-05-04T23:54:05.676Z,97088.38
2023-05-04T23:56:31.960Z,97085.38
2023-05-04T23:58:58.239Z,97083.75
